Time;durP1;ratioP1;P1;durP2;ratioP2;P2;SDS_P1;SDS_P2;PMS_P1;PMS_P2;Temp;Humidity;BMP_temperature;BMP_pressure;BME280_temperature;BME280_humidity;BME280_pressure;Samples;Min_cycle;Max_cycle;Signal;HPM_P1;HPM_P2
2021/08/31 00:00:17;;;;;;;7.75;4.60;;;15.20;99.90;;;;;;5093785;28;20052;-71
2021/08/31 00:02:45;;;;;;;9.05;5.20;;;15.10;99.90;;;;;;5093562;28;20110;-71
2021/08/31 00:05:15;;;;;;;11.05;4.50;;;15.20;99.90;;;;;;5094119;28;20047;-71
2021/08/31 00:07:43;;;;;;;8.95;4.50;;;15.20;99.90;;;;;;5092811;28;20094;-69
2021/08/31 00:10:12;;;;;;;7.75;4.82;;;15.20;99.90;;;;;;5093651;28;20431;-71
2021/08/31 00:12:39;;;;;;;8.38;4.40;;;15.20;99.90;;;;;;5093499;28;20101;-74
2021/08/31 00:15:10;;;;;;;7.57;4.13;;;15.20;99.90;;;;;;5093123;28;20557;-70
2021/08/31 00:17:37;;;;;;;9.43;4.40;;;15.20;99.90;;;;;;5092370;28;20056;-71
2021/08/31 00:20:06;;;;;;;8.88;4.47;;;15.10;99.90;;;;;;5093324;28;20051;-71
2021/08/31 00:22:35;;;;;;;6.93;3.95;;;15.10;99.90;;;;;;5093514;28;20063;-72
2021/08/31 00:25:02;;;;;;;8.48;4.60;;;15.20;99.90;;;;;;5093065;28;20562;-71
2021/08/31 00:27:29;;;;;;;6.93;4.35;;;15.20;99.90;;;;;;5091477;28;20056;-72
2021/08/31 00:29:56;;;;;;;7.63;3.92;;;15.20;99.90;;;;;;5092608;28;20048;-70
2021/08/31 00:32:24;;;;;;;8.45;4.70;;;15.10;99.90;;;;;;5093124;28;20507;-71
2021/08/31 00:34:51;;;;;;;7.90;4.18;;;15.10;99.90;;;;;;5092795;28;20052;-72
2021/08/31 00:37:18;;;;;;;7.88;4.55;;;15.20;99.90;;;;;;5093402;28;20113;-71
2021/08/31 00:39:45;;;;;;;10.73;4.18;;;15.20;99.90;;;;;;5092196;28;20048;-71
2021/08/31 00:42:12;;;;;;;7.80;4.43;;;15.10;99.90;;;;;;5093422;28;20118;-72
2021/08/31 00:44:39;;;;;;;9.10;4.75;;;15.20;99.90;;;;;;5092766;28;20098;-72
2021/08/31 00:47:07;;;;;;;7.63;4.25;;;15.20;99.90;;;;;;5092826;28;20102;-70
2021/08/31 00:49:36;;;;;;;9.57;5.18;;;15.20;99.90;;;;;;5091946;28;20098;-69
2021/08/31 00:52:04;;;;;;;7.50;4.35;;;15.20;99.90;;;;;;5113720;28;20055;-71
2021/08/31 00:54:31;;;;;;;8.32;4.57;;;15.20;99.90;;;;;;5112704;28;20052;-71
2021/08/31 00:57:00;;;;;;;8.73;4.50;;;15.20;99.90;;;;;;5113061;28;20051;-71
2021/08/31 00:59:27;;;;;;;8.82;4.95;;;15.20;99.90;;;;;;5112386;28;20184;-71
2021/08/31 01:01:55;;;;;;;8.52;5.05;;;15.20;99.90;;;;;;5113130;28;20059;-71
2021/08/31 01:04:24;;;;;;;8.63;4.80;;;15.20;99.90;;;;;;5112584;28;20047;-71
2021/08/31 01:06:53;;;;;;;8.98;4.90;;;15.20;99.90;;;;;;5112835;28;20100;-71
2021/08/31 01:09:20;;;;;;;8.02;4.70;;;15.20;99.90;;;;;;5111766;28;20048;-70
2021/08/31 01:11:48;;;;;;;9.02;5.15;;;15.10;99.90;;;;;;5112787;28;20097;-72
2021/08/31 01:14:16;;;;;;;9.15;6.00;;;15.10;99.90;;;;;;5112887;28;20168;-71
2021/08/31 01:16:44;;;;;;;8.13;4.78;;;15.20;99.90;;;;;;5112565;28;20054;-71
2021/08/31 01:19:11;;;;;;;8.75;5.22;;;15.20;99.90;;;;;;5111403;28;20055;-71
2021/08/31 01:21:38;;;;;;;10.75;5.03;;;15.20;99.90;;;;;;5111936;28;20472;-70
2021/08/31 01:24:07;;;;;;;10.70;5.40;;;15.20;99.90;;;;;;5112454;28;20073;-72
2021/08/31 01:26:35;;;;;;;9.25;5.75;;;15.20;99.90;;;;;;5112265;28;20100;-70
2021/08/31 01:29:04;;;;;;;10.60;5.25;;;15.20;99.90;;;;;;5111282;28;20052;-70
2021/08/31 01:31:31;;;;;;;8.95;4.60;;;15.20;99.90;;;;;;5112267;28;20044;-71
2021/08/31 01:33:58;;;;;;;7.00;4.50;;;15.30;99.90;;;;;;5111514;28;20052;-71
2021/08/31 01:36:26;;;;;;;10.48;4.60;;;15.30;99.90;;;;;;5112307;28;20048;-70
2021/08/31 01:38:55;;;;;;;9.93;5.28;;;15.20;99.90;;;;;;5110782;28;20047;-70
2021/08/31 01:41:23;;;;;;;8.15;5.05;;;15.20;99.90;;;;;;5112130;28;20172;-71
2021/08/31 01:43:52;;;;;;;6.32;4.57;;;15.20;99.90;;;;;;5112275;28;20051;-70
2021/08/31 01:46:19;;;;;;;7.93;4.35;;;15.20;99.90;;;;;;5112140;28;20056;-71
2021/08/31 01:48:46;;;;;;;9.38;4.20;;;15.20;99.90;;;;;;5110758;28;20044;-71
2021/08/31 01:51:13;;;;;;;7.93;4.97;;;15.20;99.90;;;;;;5111881;28;20044;-71
2021/08/31 01:53:40;;;;;;;9.73;4.72;;;15.20;99.90;;;;;;5112422;28;20051;-72
2021/08/31 01:56:07;;;;;;;8.35;4.90;;;15.20;99.90;;;;;;5111922;28;20453;-70
2021/08/31 01:58:35;;;;;;;9.20;4.45;;;15.30;99.90;;;;;;5111653;28;20415;-72
2021/08/31 02:01:04;;;;;;;8.75;4.45;;;15.20;99.90;;;;;;5111694;28;20059;-71
2021/08/31 02:03:31;;;;;;;8.93;4.30;;;15.20;99.90;;;;;;5111800;28;20043;-71
2021/08/31 02:05:58;;;;;;;8.70;4.53;;;15.20;99.90;;;;;;5112501;28;20431;-71
2021/08/31 02:08:25;;;;;;;6.78;4.32;;;15.10;99.90;;;;;;5112040;28;20059;-71
2021/08/31 02:10:52;;;;;;;8.35;4.75;;;15.20;99.90;;;;;;5112418;28;20079;-70
2021/08/31 02:13:19;;;;;;;8.15;4.28;;;15.20;99.90;;;;;;5112135;28;20093;-70
2021/08/31 02:15:46;;;;;;;8.35;4.03;;;15.20;99.90;;;;;;5112357;28;20043;-71
2021/08/31 02:18:15;;;;;;;7.55;4.57;;;15.20;99.90;;;;;;5111394;28;20557;-70
2021/08/31 02:20:42;;;;;;;7.53;4.57;;;15.20;99.90;;;;;;5112575;28;20491;-70
2021/08/31 02:23:09;;;;;;;7.75;4.90;;;15.20;99.90;;;;;;5111914;28;20077;-71
2021/08/31 02:25:36;;;;;;;9.38;4.60;;;15.20;99.90;;;;;;5112160;28;20430;-71
2021/08/31 02:28:03;;;;;;;8.70;5.32;;;15.20;99.90;;;;;;5110462;28;20109;-71
2021/08/31 02:30:30;;;;;;;8.07;4.90;;;15.10;99.90;;;;;;5111985;28;20101;-71
2021/08/31 02:33:00;;;;;;;8.57;5.07;;;15.10;99.90;;;;;;5112345;28;20415;-71
2021/08/31 02:35:29;;;;;;;7.43;4.45;;;15.10;99.90;;;;;;5111698;28;20062;-70
2021/08/31 02:37:56;;;;;;;8.85;4.90;;;15.10;99.90;;;;;;5112003;28;20054;-71
2021/08/31 02:40:23;;;;;;;8.18;5.00;;;15.10;99.90;;;;;;5112231;28;20056;-70
2021/08/31 02:42:50;;;;;;;14.10;5.45;;;15.10;99.90;;;;;;5112142;28;20191;-71
2021/08/31 02:45:17;;;;;;;10.07;6.03;;;15.00;99.90;;;;;;5111701;28;20105;-70
2021/08/31 02:47:44;;;;;;;9.05;5.95;;;15.10;99.90;;;;;;5111321;28;20422;-70
2021/08/31 02:50:11;;;;;;;9.88;6.05;;;15.10;99.90;;;;;;5111902;28;20193;-70
2021/08/31 02:52:40;;;;;;;12.25;6.13;;;15.10;99.90;;;;;;5115780;28;20106;-71
2021/08/31 02:55:07;;;;;;;12.05;6.13;;;15.00;99.90;;;;;;5116102;28;20048;-71
2021/08/31 02:57:34;;;;;;;8.75;5.35;;;15.00;99.90;;;;;;5114551;28;20116;-70
2021/08/31 03:00:01;;;;;;;11.07;6.10;;;15.00;99.90;;;;;;5115651;28;20406;-71
2021/08/31 03:02:29;;;;;;;12.88;6.70;;;15.00;99.90;;;;;;5115294;28;20568;-71
2021/08/31 03:04:56;;;;;;;14.30;7.35;;;14.90;99.90;;;;;;5115752;28;20055;-71
2021/08/31 03:07:23;;;;;;;12.32;6.97;;;14.80;99.90;;;;;;5114417;28;20514;-70
2021/08/31 03:09:52;;;;;;;14.02;6.95;;;14.80;99.90;;;;;;5114758;28;20056;-71
2021/08/31 03:12:19;;;;;;;10.63;6.78;;;14.70;99.90;;;;;;5115105;28;20419;-71
2021/08/31 03:14:46;;;;;;;11.98;6.72;;;14.80;99.90;;;;;;5115287;28;20560;-71
2021/08/31 03:17:13;;;;;;;12.15;6.68;;;14.70;99.90;;;;;;5114528;28;20107;-71
2021/08/31 03:19:40;;;;;;;12.23;7.68;;;14.70;99.90;;;;;;5114309;28;20051;-71
2021/08/31 03:22:09;;;;;;;14.20;8.05;;;14.70;99.90;;;;;;5115037;28;20047;-71
2021/08/31 03:24:37;;;;;;;13.50;7.28;;;14.70;99.90;;;;;;5115069;28;20043;-71
2021/08/31 03:27:06;;;;;;;13.95;6.97;;;14.70;99.90;;;;;;5114642;28;20047;-70
2021/08/31 03:29:33;;;;;;;10.05;6.47;;;14.80;99.90;;;;;;5114163;28;20071;-70
2021/08/31 03:32:00;;;;;;;10.60;6.70;;;14.70;99.90;;;;;;5114813;28;20047;-70
2021/08/31 03:34:27;;;;;;;11.38;6.10;;;14.70;99.90;;;;;;5114972;28;20096;-71
2021/08/31 03:36:54;;;;;;;12.05;6.40;;;14.70;99.90;;;;;;5114496;28;20048;-71
2021/08/31 03:39:21;;;;;;;12.30;6.53;;;14.70;99.90;;;;;;5113603;28;20055;-71
2021/08/31 03:41:48;;;;;;;12.35;6.53;;;14.80;99.90;;;;;;5114326;28;20500;-71
2021/08/31 03:44:17;;;;;;;12.30;6.63;;;14.80;99.90;;;;;;5114642;28;20097;-71
2021/08/31 03:46:44;;;;;;;11.85;6.60;;;14.80;99.90;;;;;;5114317;28;20560;-71
2021/08/31 03:49:11;;;;;;;12.25;6.47;;;14.70;99.90;;;;;;5113869;28;20059;-71
2021/08/31 03:51:38;;;;;;;12.88;6.60;;;14.70;99.90;;;;;;5114332;28;20515;-72
2021/08/31 03:54:05;;;;;;;11.55;6.72;;;14.70;99.90;;;;;;5114519;28;20495;-71
2021/08/31 03:56:32;;;;;;;11.85;6.78;;;14.60;99.90;;;;;;5113997;28;20052;-71
2021/08/31 03:58:59;;;;;;;11.15;6.28;;;14.60;99.90;;;;;;5113573;28;20059;-72
2021/08/31 04:01:27;;;;;;;10.00;6.25;;;14.70;99.90;;;;;;5113802;28;20048;-71
2021/08/31 04:03:54;;;;;;;11.43;7.05;;;14.60;99.90;;;;;;5113626;28;20052;-72
2021/08/31 04:06:21;;;;;;;12.05;7.32;;;14.70;99.90;;;;;;5114148;28;20108;-71
2021/08/31 04:08:48;;;;;;;10.68;6.95;;;14.70;99.90;;;;;;5113061;28;20573;-72
2021/08/31 04:11:15;;;;;;;14.00;7.47;;;14.70;99.90;;;;;;5113767;28;20578;-71
2021/08/31 04:13:42;;;;;;;19.45;8.18;;;14.80;99.90;;;;;;5114255;28;20047;-70
2021/08/31 04:16:09;;;;;;;12.77;7.55;;;14.80;99.90;;;;;;5114290;28;20051;-71
2021/08/31 04:18:38;;;;;;;16.08;8.07;;;14.70;99.90;;;;;;5112932;28;20074;-71
2021/08/31 04:21:05;;;;;;;15.73;8.40;;;14.70;99.90;;;;;;5113485;28;20100;-72
2021/08/31 04:23:32;;;;;;;13.52;7.90;;;14.70;99.90;;;;;;5114264;28;20464;-71
2021/08/31 04:25:59;;;;;;;14.25;8.13;;;14.70;99.90;;;;;;5113762;28;20539;-71
2021/08/31 04:28:26;;;;;;;18.92;8.07;;;14.70;99.90;;;;;;5112858;28;20052;-72
2021/08/31 04:30:53;;;;;;;14.60;7.78;;;14.60;99.90;;;;;;5113738;28;20461;-70
2021/08/31 04:33:20;;;;;;;15.52;7.88;;;14.60;99.90;;;;;;5113493;28;20087;-72
2021/08/31 04:35:48;;;;;;;15.60;8.00;;;14.70;99.90;;;;;;5113415;28;20073;-71
2021/08/31 04:38:15;;;;;;;17.33;8.65;;;14.70;99.90;;;;;;5112396;28;20086;-71
2021/08/31 04:40:42;;;;;;;18.13;8.73;;;14.60;99.90;;;;;;5113824;28;20104;-70
2021/08/31 04:43:09;;;;;;;15.13;8.20;;;14.60;99.90;;;;;;5113259;28;20105;-71
2021/08/31 04:45:36;;;;;;;17.45;9.40;;;14.60;99.90;;;;;;5113097;28;20044;-70
2021/08/31 04:48:03;;;;;;;13.88;7.47;;;14.50;99.90;;;;;;5112829;28;20491;-71
2021/08/31 04:50:30;;;;;;;17.13;8.32;;;14.50;99.90;;;;;;5113515;28;20079;-70
2021/08/31 04:52:59;;;;;;;19.73;8.50;;;14.60;99.90;;;;;;5112993;28;20454;-72
2021/08/31 04:55:26;;;;;;;13.65;8.25;;;14.60;99.90;;;;;;5113367;28;20556;-70
2021/08/31 04:57:53;;;;;;;16.88;8.23;;;14.60;99.90;;;;;;5111932;28;20500;-72
2021/08/31 05:00:20;;;;;;;16.40;9.13;;;14.70;99.90;;;;;;5113080;28;20044;-70
2021/08/31 05:02:49;;;;;;;13.15;8.50;;;14.60;99.90;;;;;;5113231;28;20052;-72
2021/08/31 05:05:16;;;;;;;14.85;8.10;;;14.60;99.90;;;;;;5113424;28;20051;-72
2021/08/31 05:07:43;;;;;;;18.10;10.50;;;14.70;99.90;;;;;;5112293;28;20043;-71
2021/08/31 05:10:11;;;;;;;12.40;7.15;;;14.60;99.90;;;;;;5112901;28;20495;-72
2021/08/31 05:12:38;;;;;;;13.93;8.10;;;14.70;99.90;;;;;;5112744;28;20047;-71
2021/08/31 05:15:06;;;;;;;11.43;7.47;;;14.70;99.90;;;;;;5113693;28;20052;-72
2021/08/31 05:17:34;;;;;;;11.35;7.20;;;14.80;99.90;;;;;;5111779;28;20062;-71
2021/08/31 05:20:03;;;;;;;11.23;7.05;;;14.70;99.90;;;;;;5113099;28;20043;-71
2021/08/31 05:22:31;;;;;;;13.63;6.75;;;14.70;99.90;;;;;;5112717;28;20118;-72
2021/08/31 05:25:00;;;;;;;10.43;6.63;;;14.70;99.90;;;;;;5112887;28;20097;-72
2021/08/31 05:27:29;;;;;;;15.73;7.47;;;14.80;99.90;;;;;;5112291;28;20086;-71
2021/08/31 05:29:56;;;;;;;13.70;8.18;;;14.80;99.90;;;;;;5111790;28;20491;-70
2021/08/31 05:32:24;;;;;;;11.10;7.72;;;14.80;99.90;;;;;;5112578;28;20059;-72
2021/08/31 05:34:51;;;;;;;14.93;7.90;;;14.80;99.90;;;;;;5112694;28;20430;-71
2021/08/31 05:37:18;;;;;;;18.45;7.18;;;14.80;99.90;;;;;;5112100;28;20051;-72
2021/08/31 05:39:45;;;;;;;13.52;7.03;;;14.90;99.90;;;;;;5111819;28;20116;-72
2021/08/31 05:42:13;;;;;;;12.20;6.70;;;15.00;99.90;;;;;;5112676;28;20104;-72
2021/08/31 05:44:42;;;;;;;11.48;6.45;;;14.90;99.90;;;;;;5112693;28;20052;-71
2021/08/31 05:47:09;;;;;;;11.25;7.03;;;15.00;99.90;;;;;;5112338;28;20063;-70
2021/08/31 05:49:37;;;;;;;11.27;6.40;;;15.00;99.90;;;;;;5111034;28;20054;-71
2021/08/31 05:52:05;;;;;;;15.63;8.00;;;15.00;99.90;;;;;;5112230;28;20465;-72
2021/08/31 05:54:32;;;;;;;10.85;6.63;;;15.10;99.90;;;;;;5112449;28;20062;-72
2021/08/31 05:57:06;;;;;;;14.55;6.55;;;15.20;99.90;;;;;;5111747;28;20052;-71
2021/08/31 05:59:33;;;;;;;15.60;6.95;;;15.20;99.90;;;;;;5110303;28;20058;-71
2021/08/31 06:02:01;;;;;;;11.27;6.95;;;15.20;99.90;;;;;;5110970;28;20048;-71
2021/08/31 06:04:29;;;;;;;15.40;6.43;;;15.30;99.90;;;;;;5111922;28;20047;-72
2021/08/31 06:06:56;;;;;;;9.82;6.03;;;15.30;99.90;;;;;;5112702;28;20496;-72
2021/08/31 06:09:23;;;;;;;12.60;6.40;;;15.40;99.90;;;;;;5111897;28;20078;-70
2021/08/31 06:11:51;;;;;;;16.40;6.68;;;15.40;99.90;;;;;;5112057;28;20044;-71
2021/08/31 06:14:18;;;;;;;13.85;6.35;;;15.40;99.90;;;;;;5111371;28;20056;-71
2021/08/31 06:16:45;;;;;;;10.52;5.45;;;15.40;99.90;;;;;;5112432;28;20048;-72
2021/08/31 06:19:13;;;;;;;14.88;5.93;;;15.40;99.90;;;;;;5111536;28;20090;-71
2021/08/31 06:21:40;;;;;;;11.23;5.63;;;15.50;99.90;;;;;;5112495;28;20056;-72
2021/08/31 06:24:07;;;;;;;12.57;6.40;;;15.40;99.90;;;;;;5111444;28;20075;-70
2021/08/31 06:26:34;;;;;;;11.02;6.03;;;15.40;99.90;;;;;;5114604;28;20047;-73
2021/08/31 06:29:01;;;;;;;13.80;5.82;;;15.40;99.90;;;;;;5114720;28;20055;-70
2021/08/31 06:31:28;;;;;;;11.40;5.82;;;15.40;99.90;;;;;;5115262;28;20044;-73
2021/08/31 06:33:55;;;;;;;10.23;5.38;;;15.40;99.90;;;;;;5114916;28;20090;-71
2021/08/31 06:36:24;;;;;;;10.00;6.00;;;15.40;99.90;;;;;;5115518;28;20094;-71
2021/08/31 06:38:51;;;;;;;12.18;5.00;;;15.30;99.90;;;;;;5113732;28;20503;-71
2021/08/31 06:41:18;;;;;;;22.23;5.60;;;15.40;99.90;;;;;;5115550;28;20045;-71
2021/08/31 06:43:46;;;;;;;12.38;5.65;;;15.40;99.90;;;;;;5115130;28;20478;-72
2021/08/31 06:46:14;;;;;;;15.27;6.70;;;15.40;99.90;;;;;;5115886;28;20464;-71
2021/08/31 06:48:42;;;;;;;16.35;6.57;;;15.30;99.90;;;;;;5114559;28;20079;-71
2021/08/31 06:51:09;;;;;;;13.23;5.55;;;15.40;99.90;;;;;;5115570;28;20058;-71
2021/08/31 06:53:38;;;;;;;13.13;6.13;;;15.40;99.90;;;;;;5114695;28;20069;-70
2021/08/31 06:56:05;;;;;;;14.95;5.97;;;15.40;99.90;;;;;;5115243;28;20048;-72
2021/08/31 06:58:32;;;;;;;14.82;6.45;;;15.40;99.90;;;;;;5114368;28;20073;-71
2021/08/31 07:00:59;;;;;;;14.13;7.10;;;15.40;99.90;;;;;;5115160;28;20092;-71
2021/08/31 07:03:26;;;;;;;14.65;6.15;;;15.50;99.90;;;;;;5115215;28;20071;-71
2021/08/31 07:05:53;;;;;;;9.80;5.88;;;15.40;99.90;;;;;;5115501;28;20055;-70
2021/08/31 07:08:20;;;;;;;10.70;6.00;;;15.40;99.90;;;;;;5113716;28;20069;-72
2021/08/31 07:10:49;;;;;;;11.38;5.93;;;15.50;99.90;;;;;;5114899;28;20488;-72
2021/08/31 07:13:16;;;;;;;12.55;6.25;;;15.50;99.90;;;;;;5114839;28;20093;-70
2021/08/31 07:15:43;;;;;;;10.32;6.30;;;15.50;99.90;;;;;;5115301;28;20043;-72
2021/08/31 07:18:10;;;;;;;9.95;5.82;;;15.50;99.90;;;;;;5114174;28;20047;-71
2021/08/31 07:20:37;;;;;;;13.18;6.50;;;15.60;99.90;;;;;;5114776;28;20051;-71
2021/08/31 07:23:04;;;;;;;15.20;6.50;;;15.70;99.90;;;;;;5114199;28;20077;-71
2021/08/31 07:25:31;;;;;;;11.73;5.82;;;16.00;99.90;;;;;;5114569;28;20113;-70
2021/08/31 07:28:00;;;;;;;11.80;5.75;;;16.20;99.90;;;;;;5113620;28;20047;-71
2021/08/31 07:30:27;;;;;;;10.60;5.63;;;16.40;99.90;;;;;;5114335;28;20048;-70
2021/08/31 07:32:54;;;;;;;8.75;5.80;;;16.50;99.90;;;;;;5113772;28;20408;-71
2021/08/31 07:35:21;;;;;;;13.30;6.22;;;16.70;99.90;;;;;;5113907;28;20076;-71
2021/08/31 07:37:48;;;;;;;11.98;5.45;;;16.80;99.90;;;;;;5112795;28;20055;-72
2021/08/31 07:40:16;;;;;;;10.63;5.50;;;16.80;99.90;;;;;;5113693;28;20396;-71
2021/08/31 07:42:43;;;;;;;10.90;5.60;;;16.80;99.90;;;;;;5114267;28;20445;-72
2021/08/31 07:45:13;;;;;;;10.50;5.38;;;16.80;99.90;;;;;;5112987;28;20074;-73
2021/08/31 07:47:40;;;;;;;9.27;5.38;;;17.00;99.90;;;;;;5112774;28;20510;-71
2021/08/31 07:50:08;;;;;;;12.63;6.03;;;17.10;99.90;;;;;;5113861;28;20069;-71
2021/08/31 07:52:36;;;;;;;11.13;6.38;;;17.10;99.90;;;;;;5113651;28;20442;-70
2021/08/31 07:55:08;;;;;;;10.10;5.95;;;17.10;99.90;;;;;;5113988;28;20055;-70
2021/08/31 07:57:35;;;;;;;10.57;5.60;;;17.30;99.90;;;;;;5113445;28;20503;-71
2021/08/31 08:00:07;;;;;;;10.90;5.65;;;17.30;99.90;;;;;;5113352;28;20079;-71
2021/08/31 08:02:35;;;;;;;9.85;5.22;;;17.30;99.90;;;;;;5114680;28;20048;-71
2021/08/31 08:05:03;;;;;;;12.32;6.15;;;17.40;99.90;;;;;;5114112;28;20055;-71
2021/08/31 08:07:29;;;;;;;10.57;5.72;;;17.40;99.90;;;;;;5112575;28;20050;-72
2021/08/31 08:09:57;;;;;;;10.77;4.97;;;17.50;99.90;;;;;;5112419;28;20495;-71
2021/08/31 08:12:24;;;;;;;14.77;5.70;;;17.50;99.90;;;;;;5113272;28;20056;-71
2021/08/31 08:14:52;;;;;;;11.02;6.28;;;17.70;99.90;;;;;;5113352;28;20051;-72
2021/08/31 08:17:19;;;;;;;10.07;5.63;;;17.90;99.90;;;;;;5112713;28;20052;-71
2021/08/31 08:19:48;;;;;;;9.20;5.20;;;18.10;99.90;;;;;;5112247;28;20123;-71
2021/08/31 08:22:15;;;;;;;10.75;5.32;;;18.00;99.90;;;;;;5112380;28;20495;-71
2021/08/31 08:24:43;;;;;;;10.80;5.43;;;18.70;99.90;;;;;;5112490;28;20051;-71
2021/08/31 08:27:10;;;;;;;9.95;4.78;;;19.30;99.90;;;;;;5111213;28;20140;-71
2021/08/31 08:29:38;;;;;;;9.93;4.15;;;19.90;99.90;;;;;;5109881;28;20503;-71
2021/08/31 08:32:06;;;;;;;10.07;4.68;;;20.40;99.90;;;;;;5110944;28;20431;-71
2021/08/31 08:34:33;;;;;;;9.20;4.00;;;21.10;99.90;;;;;;5110200;28;20044;-70
2021/08/31 08:37:02;;;;;;;8.98;4.30;;;22.20;99.90;;;;;;5110464;28;20128;-70
2021/08/31 08:39:29;;;;;;;10.23;4.10;;;23.00;99.90;;;;;;5109562;28;20059;-69
2021/08/31 08:41:57;;;;;;;8.68;4.18;;;23.80;99.90;;;;;;5110659;28;20047;-70
2021/08/31 08:44:27;;;;;;;8.15;4.25;;;24.90;99.90;;;;;;5110567;28;20156;-70
2021/08/31 08:46:54;;;;;;;9.18;4.10;;;25.30;99.90;;;;;;5110492;28;20348;-70
2021/08/31 08:49:21;;;;;;;8.93;4.43;;;26.00;99.90;;;;;;5109046;28;20120;-70
2021/08/31 08:51:48;;;;;;;8.48;3.92;;;26.90;99.90;;;;;;5110474;28;20093;-70
2021/08/31 08:54:17;;;;;;;7.75;4.07;;;27.30;99.90;;;;;;5110300;28;20051;-70
2021/08/31 08:56:45;;;;;;;11.00;4.70;;;27.50;99.90;;;;;;5109939;28;20097;-70
2021/08/31 08:59:13;;;;;;;8.95;4.28;;;27.00;99.90;;;;;;5109653;28;20083;-70
2021/08/31 09:01:42;;;;;;;10.95;4.65;;;26.40;99.90;;;;;;5109813;28;20048;-70
2021/08/31 09:04:11;;;;;;;12.15;4.30;;;25.40;99.90;;;;;;5110180;28;20465;-70
2021/08/31 09:06:38;;;;;;;9.00;4.50;;;24.60;99.90;;;;;;5109558;28;20415;-70
2021/08/31 09:09:07;;;;;;;9.20;4.57;;;23.40;99.90;;;;;;5109242;28;20091;-69
2021/08/31 09:11:37;;;;;;;7.65;4.35;;;23.20;99.90;;;;;;5109369;28;20763;-69
2021/08/31 09:14:34;;;;;;;11.55;5.35;;;22.60;99.90;;;;;;5110142;28;20062;-69
2021/08/31 09:17:03;;;;;;;8.80;4.55;;;22.30;99.90;;;;;;5063096;28;20065;-69
2021/08/31 09:19:31;;;;;;;10.15;5.22;;;22.10;99.90;;;;;;5108975;28;20052;-69
2021/08/31 09:22:15;;;;;;;9.98;4.10;;;22.10;99.90;;;;;;5109618;28;20083;-69
2021/08/31 09:24:56;;;;;;;9.48;5.10;;;22.00;99.90;;;;;;5110798;28;20044;-70
2021/08/31 09:27:41;;;;;;;9.60;5.05;;;21.80;99.90;;;;;;5109651;28;20552;-70
2021/08/31 09:30:19;;;;;;;7.32;4.30;;;21.40;99.90;;;;;;5110076;28;20048;-72
2021/08/31 09:33:06;;;;;;;9.20;4.75;;;21.00;99.90;;;;;;5110081;28;20043;-71
2021/08/31 09:35:33;;;;;;;;;;;21.10;99.90;;;;;;5109575;28;20410;-71
2021/08/31 09:38:00;;;;;;;;;;;21.00;99.90;;;;;;5109219;28;19926;-72
2021/08/31 09:40:30;;;;;;;9.90;4.72;;;20.90;99.90;;;;;;5109174;28;20409;-72
2021/08/31 09:43:12;;;;;;;8.55;4.68;;;20.80;99.90;;;;;;5109859;28;20052;-71
2021/08/31 09:45:41;;;;;;;9.68;5.38;;;20.90;99.90;;;;;;5109814;28;20488;-71
2021/08/31 09:48:10;;;;;;;8.23;4.80;;;20.80;99.90;;;;;;5108840;28;20104;-71
2021/08/31 09:50:40;;;;;;;8.07;4.93;;;20.80;99.90;;;;;;5109046;28;20083;-72
2021/08/31 09:53:10;;;;;;;11.02;4.80;;;21.10;99.90;;;;;;5109483;28;20423;-71
2021/08/31 09:55:39;;;;;;;7.32;4.43;;;21.00;99.90;;;;;;5109073;28;20583;-71
2021/08/31 09:58:16;;;;;;;10.95;4.78;;;21.40;99.90;;;;;;5108514;28;20564;-71
2021/08/31 10:00:45;;;;;;;7.22;4.30;;;21.80;99.90;;;;;;5110367;28;20074;-71
2021/08/31 10:03:13;;;;;;;8.98;4.45;;;22.00;99.90;;;;;;5113238;28;20460;-72
2021/08/31 10:05:42;;;;;;;8.73;4.70;;;21.70;99.90;;;;;;5113060;28;20120;-71
2021/08/31 10:08:10;;;;;;;9.45;5.10;;;21.20;99.90;;;;;;5112766;28;20556;-71
2021/08/31 10:10:38;;;;;;;10.88;4.55;;;21.20;99.90;;;;;;5113203;28;20100;-73
2021/08/31 10:13:09;;;;;;;8.98;5.10;;;21.10;99.90;;;;;;5113230;28;20047;-71
2021/08/31 10:15:41;;;;;;;9.75;4.28;;;20.80;99.90;;;;;;5112792;28;20047;-72
2021/08/31 10:18:09;;;;;;;9.23;5.25;;;20.70;99.90;;;;;;5112607;28;20488;-71
2021/08/31 10:20:43;;;;;;;11.20;5.00;;;20.80;99.90;;;;;;5113026;28;20091;-71
2021/08/31 10:23:11;;;;;;;8.70;4.57;;;20.80;99.90;;;;;;5113081;28;20058;-71
2021/08/31 10:25:38;;;;;;;8.25;4.47;;;21.00;99.90;;;;;;5112735;28;20576;-71
2021/08/31 10:28:22;;;;;;;7.88;4.15;;;21.20;99.90;;;;;;5112199;28;20116;-70
2021/08/31 10:30:51;;;;;;;8.82;4.65;;;21.20;99.90;;;;;;5112833;28;20479;-71
2021/08/31 10:33:37;;;;;;;10.00;5.13;;;21.20;99.90;;;;;;5113168;28;20043;-71
2021/08/31 10:36:07;;;;;;;12.15;4.75;;;21.00;99.90;;;;;;5112756;28;20062;-72
2021/08/31 10:38:54;;;;;;;9.43;4.57;;;21.00;99.90;;;;;;5112018;28;20419;-72
2021/08/31 10:41:30;;;;;;;;;;;21.10;99.90;;;;;;5113075;28;20527;-71
2021/08/31 10:43:58;;;;;;;8.32;4.65;;;20.80;99.90;;;;;;5112608;28;20364;-70
2021/08/31 10:46:26;;;;;;;8.90;4.80;;;20.60;99.90;;;;;;5112482;28;20082;-71
2021/08/31 10:49:03;;;;;;;8.82;4.63;;;20.30;99.90;;;;;;5111239;28;20052;-71
2021/08/31 10:51:30;;;;;;;11.48;5.90;;;20.20;99.90;;;;;;5112495;28;20048;-71
2021/08/31 10:53:57;;;;;;;12.90;4.32;;;20.20;99.90;;;;;;5112765;28;20098;-71
2021/08/31 10:56:29;;;;;;;11.93;5.35;;;20.10;99.90;;;;;;5112680;28;20070;-71
2021/08/31 10:58:57;;;;;;;9.18;4.63;;;19.90;99.90;;;;;;5111969;28;20130;-71
2021/08/31 11:01:27;;;;;;;8.98;4.53;;;19.80;99.90;;;;;;5112223;28;20108;-72
2021/08/31 11:03:55;;;;;;;8.38;4.35;;;19.70;99.90;;;;;;5112250;28;20056;-72
2021/08/31 11:06:28;;;;;;;9.88;4.57;;;19.80;99.90;;;;;;5112051;28;20052;-72
2021/08/31 11:09:25;;;;;;;9.43;4.68;;;19.90;99.90;;;;;;5111596;28;20047;-72
2021/08/31 11:12:05;;;;;;;10.45;5.22;;;20.40;99.90;;;;;;5111595;28;20100;-72
2021/08/31 11:14:55;;;;;;;10.63;4.80;;;20.60;99.90;;;;;;5112233;28;20051;-72
2021/08/31 11:17:48;;;;;;;10.25;4.85;;;20.70;99.90;;;;;;5106385;28;20521;-70
2021/08/31 11:20:18;;;;;;;10.80;5.20;;;20.80;99.90;;;;;;5112044;28;20388;-72
2021/08/31 11:22:48;;;;;;;8.35;4.82;;;20.60;99.90;;;;;;5112054;28;20051;-72
2021/08/31 11:25:15;;;;;;;8.30;4.50;;;20.70;99.90;;;;;;5112369;28;20048;-71
2021/08/31 11:27:53;;;;;;;11.07;4.72;;;20.80;99.90;;;;;;5111168;28;20392;-72
2021/08/31 11:30:21;;;;;;;9.45;4.68;;;20.70;99.90;;;;;;5111767;28;20102;-72
2021/08/31 11:32:49;;;;;;;17.35;5.57;;;21.00;99.90;;;;;;5111042;28;20062;-72
2021/08/31 11:35:16;;;;;;;7.78;4.53;;;21.20;99.90;;;;;;5111655;28;20557;-72
2021/08/31 11:37:50;;;;;;;9.18;4.95;;;21.30;99.90;;;;;;5110885;28;20106;-72
2021/08/31 11:40:25;;;;;;;9.45;5.25;;;21.30;99.90;;;;;;5111845;28;20428;-72
2021/08/31 11:42:55;;;;;;;8.32;4.85;;;21.50;99.90;;;;;;5111317;28;20105;-70
2021/08/31 11:45:32;;;;;;;9.00;4.43;;;21.60;99.90;;;;;;5111415;28;20492;-70
2021/08/31 11:48:00;;;;;;;;;;;21.80;99.90;;;;;;5110898;28;20055;-71
2021/08/31 11:50:27;;;;;;;10.27;4.22;;;21.70;99.90;;;;;;5111569;28;19919;-71
2021/08/31 11:52:54;;;;;;;9.15;4.38;;;21.70;99.90;;;;;;5111220;28;20087;-71
2021/08/31 11:55:26;;;;;;;8.60;5.07;;;21.70;99.90;;;;;;5111446;28;20096;-71
2021/08/31 11:58:03;;;;;;;7.72;4.35;;;21.80;99.90;;;;;;5110008;28;20048;-72
2021/08/31 12:00:46;;;;;;;7.75;4.45;;;22.00;99.90;;;;;;5111260;28;20047;-72
2021/08/31 12:03:35;;;;;;;9.27;4.35;;;22.20;99.90;;;;;;5111052;28;20388;-72
2021/08/31 12:06:07;;;;;;;7.85;4.43;;;22.70;99.90;;;;;;5104823;28;20083;-72
2021/08/31 12:08:38;;;;;;;8.45;4.45;;;22.60;99.90;;;;;;5110225;28;20051;-72
2021/08/31 12:11:05;;;;;;;8.20;4.32;;;23.10;99.90;;;;;;5111123;28;20047;-72
2021/08/31 12:13:33;;;;;;;12.35;4.20;;;23.30;99.90;;;;;;5110795;28;20076;-72
2021/08/31 12:16:02;;;;;;;9.95;4.57;;;23.50;99.90;;;;;;5110917;28;20079;-72
2021/08/31 12:18:31;;;;;;;8.45;4.57;;;23.60;99.90;;;;;;5109758;28;20453;-72
2021/08/31 12:21:22;;;;;;;9.65;4.10;;;23.70;99.90;;;;;;5110716;28;20047;-72
2021/08/31 12:23:52;;;;;;;8.82;4.38;;;24.00;99.90;;;;;;5109739;28;20478;-71
2021/08/31 12:26:30;;;;;;;7.45;4.40;;;24.20;99.90;;;;;;5110905;28;20153;-72
2021/08/31 12:29:02;;;;;;;7.90;4.55;;;25.50;99.90;;;;;;5109557;28;20051;-71
2021/08/31 12:31:30;;;;;;;8.55;4.20;;;26.40;99.90;;;;;;5110567;28;20058;-71
2021/08/31 12:33:58;;;;;;;10.40;4.63;;;27.10;99.90;;;;;;5110242;28;20044;-73
2021/08/31 12:36:33;;;;;;;8.30;4.13;;;27.50;99.90;;;;;;5110640;28;20120;-71
2021/08/31 12:39:05;;;;;;;9.30;4.30;;;27.00;99.90;;;;;;5110063;28;20118;-71
2021/08/31 12:41:39;;;;;;;7.97;4.28;;;27.00;99.90;;;;;;5110546;28;20051;-71
2021/08/31 12:44:16;;;;;;;8.68;4.10;;;26.70;99.90;;;;;;5110043;28;20457;-71
2021/08/31 12:46:44;;;;;;;8.25;4.80;;;25.90;99.90;;;;;;5110591;28;20051;-71
2021/08/31 12:49:13;;;;;;;7.63;4.65;;;25.40;99.90;;;;;;5109038;28;20062;-71
2021/08/31 12:51:43;;;;;;;7.75;4.85;;;25.00;99.90;;;;;;5109526;28;20059;-71